Aviation Digital Data Service (ADDS)

Output produced by METARs form (1153 UTC 28 April 2015)
found at http://aviationweather.gov/adds/metars/
 
KBPT 281120Z 2812/2912 02010KT P6SM SCT007 OVC015 
     TEMPO 2812/2816 BKN007 
     FM281700 34012G20KT P6SM OVC015